createdAt,value
2023-01-05T08:44:00.508Z,86.10
2023-01-05T08:46:34.663Z,86.70
2023-01-05T08:49:09.519Z,86.30
2023-01-05T08:51:38.227Z,86.30
2023-01-05T08:54:05.870Z,85.90
2023-01-05T08:56:38.562Z,86.10
2023-01-05T08:59:07.944Z,86.10
2023-01-05T09:01:36.909Z,85.80
2023-01-05T09:04:04.529Z,85.80
2023-01-05T09:06:32.260Z,85.60
2023-01-05T09:08:59.644Z,85.80
2023-01-05T09:11:27.365Z,85.80
2023-01-05T09:14:00.551Z,85.90
2023-01-05T09:17:06.508Z,85.70
2023-01-05T09:19:22.506Z,86.00
2023-01-05T09:21:49.988Z,86.20
2023-01-05T09:24:17.348Z,86.10
2023-01-05T09:26:45.331Z,86.10
2023-01-05T09:29:13.732Z,86.20
2023-01-05T09:31:42.519Z,86.20
2023-01-05T09:34:10.720Z,86.20
2023-01-05T09:36:39.084Z,85.90
2023-01-05T09:39:07.083Z,85.70
2023-01-05T09:41:58.916Z,85.60
2023-01-05T09:44:44.046Z,85.50
2023-01-05T09:47:26.268Z,85.30
2023-01-05T09:49:54.775Z,84.90
2023-01-05T09:52:22.917Z,84.50
2023-01-05T09:54:50.651Z,85.00
2023-01-05T09:57:29.083Z,84.30
2023-01-05T10:00:05.985Z,84.50
2023-01-05T10:03:12.996Z,84.50
2023-01-05T10:05:47.387Z,84.70
2023-01-05T10:08:36.907Z,84.30
2023-01-05T10:11:42.633Z,84.90
2023-01-05T10:14:38.473Z,84.30
2023-01-05T10:21:00.843Z,84.00
2023-01-05T10:24:18.373Z,83.80
2023-01-05T10:27:54.775Z,83.60
2023-01-05T10:30:31.487Z,83.70
2023-01-05T10:33:41.607Z,84.00
2023-01-05T10:37:45.089Z,83.60
2023-01-05T10:40:57.453Z,83.50
2023-01-05T10:44:28.519Z,84.00
2023-01-05T10:46:55.963Z,83.80
2023-01-05T10:49:32.555Z,83.90
2023-01-05T10:52:01.703Z,84.00
2023-01-05T10:54:47.378Z,84.40
2023-01-05T10:57:34.859Z,84.40
2023-01-05T11:00:19.883Z,84.60
2023-01-05T11:02:59.050Z,84.80
2023-01-05T11:05:42.753Z,85.10
2023-01-05T11:08:26.860Z,84.90
2023-01-05T11:11:07.256Z,85.00
2023-01-05T11:13:48.555Z,85.00
2023-01-05T11:16:27.756Z,84.40
2023-01-05T11:19:12.937Z,84.10
2023-01-05T11:21:45.571Z,84.20
2023-01-05T11:24:24.996Z,83.60
2023-01-05T11:26:59.249Z,84.00
2023-01-05T11:29:30.891Z,84.10
2023-01-05T11:32:13.625Z,85.00
2023-01-05T11:34:52.611Z,84.90
2023-01-05T11:37:31.762Z,85.50
2023-01-05T11:40:05.191Z,85.70
2023-01-05T11:42:47.356Z,85.90
2023-01-05T11:45:31.839Z,85.70
2023-01-05T12:05:40.476Z,85.60
2023-01-05T12:08:39.183Z,85.40
2023-01-05T12:24:22.827Z,84.30
2023-01-05T12:27:30.996Z,84.90
2023-01-05T12:34:25.204Z,84.60
2023-01-05T12:37:44.332Z,84.60
2023-01-05T12:40:55.771Z,83.90
2023-01-05T12:44:17.945Z,83.90
2023-01-05T12:47:55.347Z,83.60
2023-01-05T12:51:16.651Z,83.50
2023-01-05T12:55:01.210Z,83.10
2023-01-05T13:17:53.927Z,83.80
2023-01-05T13:20:46.281Z,84.70
2023-01-05T13:24:02.618Z,85.10
2023-01-05T13:26:35.941Z,85.20
2023-01-05T13:29:05.514Z,85.10
2023-01-05T13:32:46.788Z,84.60
2023-01-05T13:36:11.289Z,84.50
2023-01-05T13:39:08.596Z,83.80
2023-01-05T13:42:35.548Z,83.70
2023-01-05T13:46:04.650Z,84.30
2023-01-05T13:49:23.440Z,84.80
2023-01-05T13:52:30.919Z,85.30
2023-01-05T13:55:03.988Z,85.80
2023-01-05T13:57:42.279Z,86.20
2023-01-05T14:00:43.077Z,86.60
2023-01-05T14:03:10.271Z,86.40
2023-01-05T14:06:08.545Z,86.50
2023-01-05T14:08:40.708Z,86.80
2023-01-05T14:11:15.704Z,86.70
2023-01-05T14:14:31.925Z,86.60
2023-01-05T14:16:59.367Z,86.50
2023-01-05T14:22:36.877Z,86.40
2023-01-05T14:26:01.805Z,86.30
2023-01-05T14:28:29.036Z,86.20
2023-01-05T14:31:13.736Z,86.20
2023-01-05T14:33:57.383Z,85.70
2023-01-05T14:37:00.270Z,85.60
2023-01-05T14:39:44.977Z,86.00
2023-01-05T14:42:12.090Z,85.50
2023-01-05T14:45:06.843Z,85.30
2023-01-05T14:47:47.128Z,85.30
2023-01-05T14:50:42.124Z,84.90
2023-01-05T14:53:20.603Z,85.00
2023-01-05T14:55:55.115Z,85.20
2023-01-05T14:58:43.430Z,85.10
2023-01-05T15:01:19.309Z,85.30
2023-01-05T15:04:11.307Z,85.00
2023-01-05T15:11:44.227Z,84.40
2023-01-05T15:14:38.434Z,83.90
